sensor_id;sensor_type;location;lat;lon;timestamp;temperature;humidity
3727;DHT22;1879;45.876;12.300;2022-09-01T00:01:10;22.70;99.90
3727;DHT22;1879;45.876;12.300;2022-09-01T00:03:39;22.70;99.90
3727;DHT22;1879;45.876;12.300;2022-09-01T00:06:07;22.80;99.90
3727;DHT22;1879;45.876;12.300;2022-09-01T00:08:36;22.80;99.90
3727;DHT22;1879;45.876;12.300;2022-09-01T00:11:03;22.80;99.90
3727;DHT22;1879;45.876;12.300;2022-09-01T00:13:31;22.80;99.90
3727;DHT22;1879;45.876;12.300;2022-09-01T00:15:59;22.70;99.90
3727;DHT22;1879;45.876;12.300;2022-09-01T00:18:29;22.70;99.90
3727;DHT22;1879;45.876;12.300;2022-09-01T00:20:57;22.70;99.90
3727;DHT22;1879;45.876;12.300;2022-09-01T00:23:25;22.70;99.90
3727;DHT22;1879;45.876;12.300;2022-09-01T00:25:54;22.70;99.90
3727;DHT22;1879;45.876;12.300;2022-09-01T00:28:22;22.70;99.90
3727;DHT22;1879;45.876;12.300;2022-09-01T00:30:50;22.60;99.90
3727;DHT22;1879;45.876;12.300;2022-09-01T00:33:18;22.60;99.90
3727;DHT22;1879;45.876;12.300;2022-09-01T00:35:45;22.60;99.90
3727;DHT22;1879;45.876;12.300;2022-09-01T00:38:12;22.50;99.90
3727;DHT22;1879;45.876;12.300;2022-09-01T00:40:39;22.50;99.90
3727;DHT22;1879;45.876;12.300;2022-09-01T00:43:14;22.50;99.90
3727;DHT22;1879;45.876;12.300;2022-09-01T00:45:43;22.50;99.90
3727;DHT22;1879;45.876;12.300;2022-09-01T00:48:12;22.50;99.90
3727;DHT22;1879;45.876;12.300;2022-09-01T00:50:39;22.60;99.90
3727;DHT22;1879;45.876;12.300;2022-09-01T00:53:08;22.50;99.90
3727;DHT22;1879;45.876;12.300;2022-09-01T00:55:36;22.50;99.90
3727;DHT22;1879;45.876;12.300;2022-09-01T00:58:05;22.50;99.90
3727;DHT22;1879;45.876;12.300;2022-09-01T01:00:35;22.50;99.90
3727;DHT22;1879;45.876;12.300;2022-09-01T01:03:07;22.50;99.90
3727;DHT22;1879;45.876;12.300;2022-09-01T01:05:39;22.40;99.90
3727;DHT22;1879;45.876;12.300;2022-09-01T01:08:08;22.40;99.90
3727;DHT22;1879;45.876;12.300;2022-09-01T01:10:39;22.30;99.90
3727;DHT22;1879;45.876;12.300;2022-09-01T01:13:14;22.20;99.90
3727;DHT22;1879;45.876;12.300;2022-09-01T01:15:42;22.20;99.90
3727;DHT22;1879;45.876;12.300;2022-09-01T01:18:09;22.20;99.90
3727;DHT22;1879;45.876;12.300;2022-09-01T01:20:38;22.20;99.90
3727;DHT22;1879;45.876;12.300;2022-09-01T01:23:31;22.20;99.90
3727;DHT22;1879;45.876;12.300;2022-09-01T01:26:04;22.20;99.90
3727;DHT22;1879;45.876;12.300;2022-09-01T01:28:37;22.20;99.90
3727;DHT22;1879;45.876;12.300;2022-09-01T01:31:07;22.20;99.90
3727;DHT22;1879;45.876;12.300;2022-09-01T01:33:39;22.10;99.90
3727;DHT22;1879;45.876;12.300;2022-09-01T01:36:08;22.10;99.90
3727;DHT22;1879;45.876;12.300;2022-09-01T01:38:38;22.10;99.90
3727;DHT22;1879;45.876;12.300;2022-09-01T01:41:09;22.00;99.90
3727;DHT22;1879;45.876;12.300;2022-09-01T01:43:37;22.00;99.90
3727;DHT22;1879;45.876;12.300;2022-09-01T01:46:06;22.00;99.90
3727;DHT22;1879;45.876;12.300;2022-09-01T01:48:35;22.10;99.90
3727;DHT22;1879;45.876;12.300;2022-09-01T01:51:04;22.10;99.90
3727;DHT22;1879;45.876;12.300;2022-09-01T01:53:33;22.00;99.90
3727;DHT22;1879;45.876;12.300;2022-09-01T01:56:00;22.00;99.90
3727;DHT22;1879;45.876;12.300;2022-09-01T01:58:29;21.90;99.90
3727;DHT22;1879;45.876;12.300;2022-09-01T02:00:57;21.90;99.90
3727;DHT22;1879;45.876;12.300;2022-09-01T02:03:26;21.90;99.90
3727;DHT22;1879;45.876;12.300;2022-09-01T02:05:55;21.90;99.90
3727;DHT22;1879;45.876;12.300;2022-09-01T02:08:23;21.90;99.90
3727;DHT22;1879;45.876;12.300;2022-09-01T02:10:52;21.90;99.90
3727;DHT22;1879;45.876;12.300;2022-09-01T02:13:22;21.90;99.90
3727;DHT22;1879;45.876;12.300;2022-09-01T02:15:59;21.90;99.90
3727;DHT22;1879;45.876;12.300;2022-09-01T02:18:31;21.90;99.90
3727;DHT22;1879;45.876;12.300;2022-09-01T02:21:00;21.90;99.90
3727;DHT22;1879;45.876;12.300;2022-09-01T02:23:28;21.90;99.90
3727;DHT22;1879;45.876;12.300;2022-09-01T02:25:58;21.90;99.90
3727;DHT22;1879;45.876;12.300;2022-09-01T02:28:27;21.90;99.90
3727;DHT22;1879;45.876;12.300;2022-09-01T02:30:58;21.90;99.90
3727;DHT22;1879;45.876;12.300;2022-09-01T02:33:27;21.90;99.90
3727;DHT22;1879;45.876;12.300;2022-09-01T02:35:58;22.00;99.90
3727;DHT22;1879;45.876;12.300;2022-09-01T02:38:26;21.90;99.90
3727;DHT22;1879;45.876;12.300;2022-09-01T02:40:54;21.90;99.90
3727;DHT22;1879;45.876;12.300;2022-09-01T02:43:24;21.80;99.90
3727;DHT22;1879;45.876;12.300;2022-09-01T02:45:54;21.90;99.90
3727;DHT22;1879;45.876;12.300;2022-09-01T02:48:27;21.80;99.90
3727;DHT22;1879;45.876;12.300;2022-09-01T02:50:57;21.90;99.90
3727;DHT22;1879;45.876;12.300;2022-09-01T02:53:27;21.90;99.90
3727;DHT22;1879;45.876;12.300;2022-09-01T02:55:54;22.00;99.90
3727;DHT22;1879;45.876;12.300;2022-09-01T02:58:24;22.10;99.90
3727;DHT22;1879;45.876;12.300;2022-09-01T03:00:52;22.10;99.90
3727;DHT22;1879;45.876;12.300;2022-09-01T03:03:20;22.00;99.90
3727;DHT22;1879;45.876;12.300;2022-09-01T03:05:51;22.00;99.90
3727;DHT22;1879;45.876;12.300;2022-09-01T03:08:22;22.00;99.90
3727;DHT22;1879;45.876;12.300;2022-09-01T03:10:50;22.00;99.90
3727;DHT22;1879;45.876;12.300;2022-09-01T03:13:21;22.00;99.90
3727;DHT22;1879;45.876;12.300;2022-09-01T03:15:48;21.90;99.90
3727;DHT22;1879;45.876;12.300;2022-09-01T03:18:16;21.90;99.90
3727;DHT22;1879;45.876;12.300;2022-09-01T03:20:45;21.90;99.90
3727;DHT22;1879;45.876;12.300;2022-09-01T03:23:16;21.90;99.90
3727;DHT22;1879;45.876;12.300;2022-09-01T03:25:45;21.90;99.90
3727;DHT22;1879;45.876;12.300;2022-09-01T03:28:13;21.90;99.90
3727;DHT22;1879;45.876;12.300;2022-09-01T03:30:44;21.90;99.90
3727;DHT22;1879;45.876;12.300;2022-09-01T03:33:12;21.90;99.90
3727;DHT22;1879;45.876;12.300;2022-09-01T03:35:39;21.90;99.90
3727;DHT22;1879;45.876;12.300;2022-09-01T03:38:06;21.90;99.90
3727;DHT22;1879;45.876;12.300;2022-09-01T03:40:35;21.90;99.90
3727;DHT22;1879;45.876;12.300;2022-09-01T03:43:04;21.90;99.90
3727;DHT22;1879;45.876;12.300;2022-09-01T03:45:32;21.90;99.90
3727;DHT22;1879;45.876;12.300;2022-09-01T03:47:59;21.90;99.90
3727;DHT22;1879;45.876;12.300;2022-09-01T03:50:28;21.90;99.90
3727;DHT22;1879;45.876;12.300;2022-09-01T03:52:57;21.90;99.90
3727;DHT22;1879;45.876;12.300;2022-09-01T03:55:29;21.90;99.90
3727;DHT22;1879;45.876;12.300;2022-09-01T03:58:00;21.90;99.90
3727;DHT22;1879;45.876;12.300;2022-09-01T04:00:32;21.90;99.90
3727;DHT22;1879;45.876;12.300;2022-09-01T04:03:02;22.00;99.90
3727;DHT22;1879;45.876;12.300;2022-09-01T04:05:30;22.00;99.90
3727;DHT22;1879;45.876;12.300;2022-09-01T04:08:00;22.00;99.90
3727;DHT22;1879;45.876;12.300;2022-09-01T04:10:29;22.10;99.90
3727;DHT22;1879;45.876;12.300;2022-09-01T04:12:58;22.10;99.90
3727;DHT22;1879;45.876;12.300;2022-09-01T04:15:26;22.20;99.90
3727;DHT22;1879;45.876;12.300;2022-09-01T04:17:54;22.20;99.90
3727;DHT22;1879;45.876;12.300;2022-09-01T04:20:34;22.20;99.90
3727;DHT22;1879;45.876;12.300;2022-09-01T04:23:13;22.20;99.90
3727;DHT22;1879;45.876;12.300;2022-09-01T04:25:41;22.20;99.90
3727;DHT22;1879;45.876;12.300;2022-09-01T04:28:10;22.20;99.90
3727;DHT22;1879;45.876;12.300;2022-09-01T04:30:42;22.20;99.90
3727;DHT22;1879;45.876;12.300;2022-09-01T04:33:09;22.20;99.90
3727;DHT22;1879;45.876;12.300;2022-09-01T04:35:37;22.20;99.90
3727;DHT22;1879;45.876;12.300;2022-09-01T04:38:05;22.20;99.90
3727;DHT22;1879;45.876;12.300;2022-09-01T04:40:36;22.30;99.90
3727;DHT22;1879;45.876;12.300;2022-09-01T04:43:03;22.30;99.90
3727;DHT22;1879;45.876;12.300;2022-09-01T04:45:33;22.30;99.90
3727;DHT22;1879;45.876;12.300;2022-09-01T04:48:01;22.30;99.90
3727;DHT22;1879;45.876;12.300;2022-09-01T04:50:28;22.30;99.90
3727;DHT22;1879;45.876;12.300;2022-09-01T04:52:58;22.30;99.90
3727;DHT22;1879;45.876;12.300;2022-09-01T04:55:26;22.30;99.90
3727;DHT22;1879;45.876;12.300;2022-09-01T04:57:55;22.30;99.90
3727;DHT22;1879;45.876;12.300;2022-09-01T05:00:24;22.40;99.90
3727;DHT22;1879;45.876;12.300;2022-09-01T05:02:57;22.40;99.90
3727;DHT22;1879;45.876;12.300;2022-09-01T05:05:27;22.40;99.90
3727;DHT22;1879;45.876;12.300;2022-09-01T05:07:55;22.40;99.90
3727;DHT22;1879;45.876;12.300;2022-09-01T05:10:22;22.40;99.90
3727;DHT22;1879;45.876;12.300;2022-09-01T05:12:54;22.40;99.90
3727;DHT22;1879;45.876;12.300;2022-09-01T05:15:21;22.40;99.90
3727;DHT22;1879;45.876;12.300;2022-09-01T05:17:48;22.50;99.90
3727;DHT22;1879;45.876;12.300;2022-09-01T05:20:18;22.50;99.90
3727;DHT22;1879;45.876;12.300;2022-09-01T05:22:46;22.60;99.90
3727;DHT22;1879;45.876;12.300;2022-09-01T05:25:13;22.60;99.90
3727;DHT22;1879;45.876;12.300;2022-09-01T05:27:43;22.60;99.90
3727;DHT22;1879;45.876;12.300;2022-09-01T05:30:14;22.60;99.90
3727;DHT22;1879;45.876;12.300;2022-09-01T05:32:43;22.60;99.90
3727;DHT22;1879;45.876;12.300;2022-09-01T05:35:12;22.60;99.90
3727;DHT22;1879;45.876;12.300;2022-09-01T05:37:40;22.60;99.90
3727;DHT22;1879;45.876;12.300;2022-09-01T05:40:09;22.60;99.90
3727;DHT22;1879;45.876;12.300;2022-09-01T05:42:41;22.60;99.90
3727;DHT22;1879;45.876;12.300;2022-09-01T05:45:09;22.60;99.90
3727;DHT22;1879;45.876;12.300;2022-09-01T05:47:37;22.60;99.90
3727;DHT22;1879;45.876;12.300;2022-09-01T05:50:05;22.60;99.90
3727;DHT22;1879;45.876;12.300;2022-09-01T05:52:36;22.70;99.90
3727;DHT22;1879;45.876;12.300;2022-09-01T05:55:06;22.70;99.90
3727;DHT22;1879;45.876;12.300;2022-09-01T05:57:35;22.80;99.90
3727;DHT22;1879;45.876;12.300;2022-09-01T06:00:06;22.80;99.90
3727;DHT22;1879;45.876;12.300;2022-09-01T06:02:37;22.80;99.90
3727;DHT22;1879;45.876;12.300;2022-09-01T06:05:06;22.90;99.90
3727;DHT22;1879;45.876;12.300;2022-09-01T06:07:33;22.90;99.90
3727;DHT22;1879;45.876;12.300;2022-09-01T06:10:01;23.00;99.90
3727;DHT22;1879;45.876;12.300;2022-09-01T06:12:29;23.00;99.90
3727;DHT22;1879;45.876;12.300;2022-09-01T06:14:56;23.00;99.90
3727;DHT22;1879;45.876;12.300;2022-09-01T06:17:25;23.00;99.90
3727;DHT22;1879;45.876;12.300;2022-09-01T06:19:55;23.00;99.90
3727;DHT22;1879;45.876;12.300;2022-09-01T06:22:24;23.00;99.90
3727;DHT22;1879;45.876;12.300;2022-09-01T06:24:52;23.10;99.90
3727;DHT22;1879;45.876;12.300;2022-09-01T06:27:21;23.10;99.90
3727;DHT22;1879;45.876;12.300;2022-09-01T06:29:49;23.20;99.90
3727;DHT22;1879;45.876;12.300;2022-09-01T06:32:18;23.20;99.90
3727;DHT22;1879;45.876;12.300;2022-09-01T06:34:46;23.20;99.90
3727;DHT22;1879;45.876;12.300;2022-09-01T06:37:16;23.30;99.90
3727;DHT22;1879;45.876;12.300;2022-09-01T06:39:47;23.30;99.90
3727;DHT22;1879;45.876;12.300;2022-09-01T06:42:15;23.40;99.90
3727;DHT22;1879;45.876;12.300;2022-09-01T06:44:44;23.40;99.90
3727;DHT22;1879;45.876;12.300;2022-09-01T06:47:13;23.40;99.90
3727;DHT22;1879;45.876;12.300;2022-09-01T06:49:41;23.50;99.90
3727;DHT22;1879;45.876;12.300;2022-09-01T06:52:08;23.50;99.90
3727;DHT22;1879;45.876;12.300;2022-09-01T06:54:36;23.60;99.90
3727;DHT22;1879;45.876;12.300;2022-09-01T06:57:05;23.70;99.90
3727;DHT22;1879;45.876;12.300;2022-09-01T06:59:32;23.70;99.90
3727;DHT22;1879;45.876;12.300;2022-09-01T07:02:01;23.80;99.90
3727;DHT22;1879;45.876;12.300;2022-09-01T07:04:29;23.80;99.90
3727;DHT22;1879;45.876;12.300;2022-09-01T07:06:57;23.90;99.90
3727;DHT22;1879;45.876;12.300;2022-09-01T07:09:25;23.90;99.90
3727;DHT22;1879;45.876;12.300;2022-09-01T07:11:52;24.10;99.90
3727;DHT22;1879;45.876;12.300;2022-09-01T07:14:20;24.30;99.90
3727;DHT22;1879;45.876;12.300;2022-09-01T07:16:47;24.60;99.90
3727;DHT22;1879;45.876;12.300;2022-09-01T07:19:15;24.70;99.90
3727;DHT22;1879;45.876;12.300;2022-09-01T07:21:44;24.70;99.90
3727;DHT22;1879;45.876;12.300;2022-09-01T07:24:12;24.50;99.90
3727;DHT22;1879;45.876;12.300;2022-09-01T07:26:42;24.40;99.90
3727;DHT22;1879;45.876;12.300;2022-09-01T07:29:14;24.40;99.90
3727;DHT22;1879;45.876;12.300;2022-09-01T07:31:42;24.30;99.90
3727;DHT22;1879;45.876;12.300;2022-09-01T07:34:11;24.30;99.90
3727;DHT22;1879;45.876;12.300;2022-09-01T07:36:39;24.40;99.90
3727;DHT22;1879;45.876;12.300;2022-09-01T07:39:09;24.50;99.90
3727;DHT22;1879;45.876;12.300;2022-09-01T07:41:36;24.40;99.90
3727;DHT22;1879;45.876;12.300;2022-09-01T07:44:08;24.40;99.90
3727;DHT22;1879;45.876;12.300;2022-09-01T07:46:39;24.40;99.90
3727;DHT22;1879;45.876;12.300;2022-09-01T07:49:07;24.50;99.90
3727;DHT22;1879;45.876;12.300;2022-09-01T07:51:34;24.50;99.90
3727;DHT22;1879;45.876;12.300;2022-09-01T07:54:01;24.30;99.90
3727;DHT22;1879;45.876;12.300;2022-09-01T07:56:30;24.30;99.90
3727;DHT22;1879;45.876;12.300;2022-09-01T07:58:57;24.40;99.90
3727;DHT22;1879;45.876;12.300;2022-09-01T08:01:26;24.40;99.90
3727;DHT22;1879;45.876;12.300;2022-09-01T08:03:55;24.50;99.90
3727;DHT22;1879;45.876;12.300;2022-09-01T08:06:25;24.50;99.90
3727;DHT22;1879;45.876;12.300;2022-09-01T08:08:54;24.50;99.90
3727;DHT22;1879;45.876;12.300;2022-09-01T08:11:26;24.60;99.90
3727;DHT22;1879;45.876;12.300;2022-09-01T08:13:55;24.60;99.90
3727;DHT22;1879;45.876;12.300;2022-09-01T08:16:23;24.60;99.90
3727;DHT22;1879;45.876;12.300;2022-09-01T08:18:50;24.70;99.90
3727;DHT22;1879;45.876;12.300;2022-09-01T08:21:19;24.70;99.90
3727;DHT22;1879;45.876;12.300;2022-09-01T08:23:48;24.80;99.90
3727;DHT22;1879;45.876;12.300;2022-09-01T08:26:19;24.90;99.90
3727;DHT22;1879;45.876;12.300;2022-09-01T08:28:47;24.80;99.90
3727;DHT22;1879;45.876;12.300;2022-09-01T08:31:17;24.80;99.90
3727;DHT22;1879;45.876;12.300;2022-09-01T08:33:46;24.80;99.90
3727;DHT22;1879;45.876;12.300;2022-09-01T08:36:14;24.80;99.90
3727;DHT22;1879;45.876;12.300;2022-09-01T08:38:42;24.80;99.90
3727;DHT22;1879;45.876;12.300;2022-09-01T08:41:15;24.70;99.90
3727;DHT22;1879;45.876;12.300;2022-09-01T08:43:51;24.80;99.90
3727;DHT22;1879;45.876;12.300;2022-09-01T08:46:24;24.80;99.90
3727;DHT22;1879;45.876;12.300;2022-09-01T08:48:54;24.70;99.90
3727;DHT22;1879;45.876;12.300;2022-09-01T08:51:26;24.70;99.90
3727;DHT22;1879;45.876;12.300;2022-09-01T08:54:02;24.70;99.90
3727;DHT22;1879;45.876;12.300;2022-09-01T08:56:30;24.70;99.90
3727;DHT22;1879;45.876;12.300;2022-09-01T08:59:02;24.70;99.90
3727;DHT22;1879;45.876;12.300;2022-09-01T09:01:36;24.70;99.90
3727;DHT22;1879;45.876;12.300;2022-09-01T09:04:18;24.80;99.90
3727;DHT22;1879;45.876;12.300;2022-09-01T09:06:56;24.90;99.90
3727;DHT22;1879;45.876;12.300;2022-09-01T09:09:32;24.80;99.90
3727;DHT22;1879;45.876;12.300;2022-09-01T09:12:25;24.90;99.90
3727;DHT22;1879;45.876;12.300;2022-09-01T09:15:09;25.00;99.90
3727;DHT22;1879;45.876;12.300;2022-09-01T09:17:47;25.00;99.90
3727;DHT22;1879;45.876;12.300;2022-09-01T09:20:15;24.90;99.90
3727;DHT22;1879;45.876;12.300;2022-09-01T09:22:44;25.00;99.90
3727;DHT22;1879;45.876;12.300;2022-09-01T09:25:14;25.00;99.90
3727;DHT22;1879;45.876;12.300;2022-09-01T09:27:43;25.20;99.90
3727;DHT22;1879;45.876;12.300;2022-09-01T09:30:13;25.50;99.90
3727;DHT22;1879;45.876;12.300;2022-09-01T09:32:47;25.50;99.90
3727;DHT22;1879;45.876;12.300;2022-09-01T09:35:28;25.60;99.90
3727;DHT22;1879;45.876;12.300;2022-09-01T09:38:15;25.70;99.90
3727;DHT22;1879;45.876;12.300;2022-09-01T09:40:56;25.90;99.90
3727;DHT22;1879;45.876;12.300;2022-09-01T09:43:25;26.10;99.90
3727;DHT22;1879;45.876;12.300;2022-09-01T09:46:25;26.10;99.90
3727;DHT22;1879;45.876;12.300;2022-09-01T09:49:09;26.10;99.90
3727;DHT22;1879;45.876;12.300;2022-09-01T09:51:37;26.30;99.90
3727;DHT22;1879;45.876;12.300;2022-09-01T09:54:13;26.40;99.90
3727;DHT22;1879;45.876;12.300;2022-09-01T09:56:41;26.50;99.60
3727;DHT22;1879;45.876;12.300;2022-09-01T09:59:20;26.60;99.60
3727;DHT22;1879;45.876;12.300;2022-09-01T10:01:48;26.60;98.80
3727;DHT22;1879;45.876;12.300;2022-09-01T10:04:33;26.70;99.30
3727;DHT22;1879;45.876;12.300;2022-09-01T10:07:04;26.80;98.60
3727;DHT22;1879;45.876;12.300;2022-09-01T10:09:48;26.80;98.70
3727;DHT22;1879;45.876;12.300;2022-09-01T10:12:16;26.90;98.10
3727;DHT22;1879;45.876;12.300;2022-09-01T10:14:47;26.90;98.30
3727;DHT22;1879;45.876;12.300;2022-09-01T10:17:19;27.10;98.30
3727;DHT22;1879;45.876;12.300;2022-09-01T10:19:52;27.20;97.80
3727;DHT22;1879;45.876;12.300;2022-09-01T10:22:20;27.30;97.60
3727;DHT22;1879;45.876;12.300;2022-09-01T10:24:48;27.50;97.50
3727;DHT22;1879;45.876;12.300;2022-09-01T10:27:18;27.50;97.10
3727;DHT22;1879;45.876;12.300;2022-09-01T10:29:51;27.50;96.90
3727;DHT22;1879;45.876;12.300;2022-09-01T10:32:25;27.40;96.50
3727;DHT22;1879;45.876;12.300;2022-09-01T10:34:54;27.30;96.60
3727;DHT22;1879;45.876;12.300;2022-09-01T10:37:22;27.30;96.70
3727;DHT22;1879;45.876;12.300;2022-09-01T10:40:13;27.40;96.50
3727;DHT22;1879;45.876;12.300;2022-09-01T10:42:41;27.50;96.10
3727;DHT22;1879;45.876;12.300;2022-09-01T10:45:28;27.60;96.50
3727;DHT22;1879;45.876;12.300;2022-09-01T10:47:56;27.70;96.50
3727;DHT22;1879;45.876;12.300;2022-09-01T10:50:27;27.90;96.40
3727;DHT22;1879;45.876;12.300;2022-09-01T10:53:03;28.10;95.60
3727;DHT22;1879;45.876;12.300;2022-09-01T10:55:58;28.20;95.10
3727;DHT22;1879;45.876;12.300;2022-09-01T10:58:44;28.10;94.40
3727;DHT22;1879;45.876;12.300;2022-09-01T11:01:14;28.10;95.10
3727;DHT22;1879;45.876;12.300;2022-09-01T11:03:50;28.30;95.10
3727;DHT22;1879;45.876;12.300;2022-09-01T11:06:51;28.40;94.70
3727;DHT22;1879;45.876;12.300;2022-09-01T11:09:22;28.50;94.40
3727;DHT22;1879;45.876;12.300;2022-09-01T11:14:49;28.60;93.90
3727;DHT22;1879;45.876;12.300;2022-09-01T11:17:20;28.90;94.10
3727;DHT22;1879;45.876;12.300;2022-09-01T11:19:58;28.90;94.10
3727;DHT22;1879;45.876;12.300;2022-09-01T11:22:33;29.00;93.40
3727;DHT22;1879;45.876;12.300;2022-09-01T11:25:35;29.10;93.60
3727;DHT22;1879;45.876;12.300;2022-09-01T11:31:02;29.80;92.20
3727;DHT22;1879;45.876;12.300;2022-09-01T11:33:52;30.00;91.90
3727;DHT22;1879;45.876;12.300;2022-09-01T11:36:27;29.50;91.90
3727;DHT22;1879;45.876;12.300;2022-09-01T11:39:02;29.60;92.40
3727;DHT22;1879;45.876;12.300;2022-09-01T11:41:33;29.80;92.10
3727;DHT22;1879;45.876;12.300;2022-09-01T11:44:06;29.90;91.70
3727;DHT22;1879;45.876;12.300;2022-09-01T11:46:36;30.10;91.40
3727;DHT22;1879;45.876;12.300;2022-09-01T11:49:25;30.20;91.50
3727;DHT22;1879;45.876;12.300;2022-09-01T11:51:53;30.50;90.50
3727;DHT22;1879;45.876;12.300;2022-09-01T11:54:23;30.50;90.20
3727;DHT22;1879;45.876;12.300;2022-09-01T11:56:50;30.50;90.10
3727;DHT22;1879;45.876;12.300;2022-09-01T11:59:30;30.50;90.10
3727;DHT22;1879;45.876;12.300;2022-09-01T12:01:58;30.60;88.50
3727;DHT22;1879;45.876;12.300;2022-09-01T12:04:29;30.70;89.00
3727;DHT22;1879;45.876;12.300;2022-09-01T12:07:00;30.70;89.20
3727;DHT22;1879;45.876;12.300;2022-09-01T12:09:34;30.80;88.60
3727;DHT22;1879;45.876;12.300;2022-09-01T12:12:05;30.70;86.80
3727;DHT22;1879;45.876;12.300;2022-09-01T12:14:33;30.40;87.70
3727;DHT22;1879;45.876;12.300;2022-09-01T12:17:02;30.30;88.40
3727;DHT22;1879;45.876;12.300;2022-09-01T12:19:32;30.60;87.70
3727;DHT22;1879;45.876;12.300;2022-09-01T12:22:02;30.50;86.70
3727;DHT22;1879;45.876;12.300;2022-09-01T12:24:34;30.10;86.90
3727;DHT22;1879;45.876;12.300;2022-09-01T12:27:02;30.20;88.40
3727;DHT22;1879;45.876;12.300;2022-09-01T12:29:29;30.40;87.80
3727;DHT22;1879;45.876;12.300;2022-09-01T12:31:59;30.60;86.80
3727;DHT22;1879;45.876;12.300;2022-09-01T12:34:35;30.70;84.50
3727;DHT22;1879;45.876;12.300;2022-09-01T12:37:10;30.80;85.00
3727;DHT22;1879;45.876;12.300;2022-09-01T12:39:41;30.70;84.40
3727;DHT22;1879;45.876;12.300;2022-09-01T12:42:20;30.30;84.50
3727;DHT22;1879;45.876;12.300;2022-09-01T12:44:50;30.10;86.40
3727;DHT22;1879;45.876;12.300;2022-09-01T12:47:44;29.80;86.20
3727;DHT22;1879;45.876;12.300;2022-09-01T12:53:24;29.30;86.70
3727;DHT22;1879;45.876;12.300;2022-09-01T12:59:06;29.20;86.80
3727;DHT22;1879;45.876;12.300;2022-09-01T13:01:37;29.30;87.70
3727;DHT22;1879;45.876;12.300;2022-09-01T13:04:06;29.20;87.00
3727;DHT22;1879;45.876;12.300;2022-09-01T13:06:35;29.20;87.90
3727;DHT22;1879;45.876;12.300;2022-09-01T13:09:03;29.10;87.80
3727;DHT22;1879;45.876;12.300;2022-09-01T13:11:30;28.90;87.60
3727;DHT22;1879;45.876;12.300;2022-09-01T13:13:58;28.80;88.10
3727;DHT22;1879;45.876;12.300;2022-09-01T13:16:27;28.70;88.20
3727;DHT22;1879;45.876;12.300;2022-09-01T13:18:54;28.60;87.90
3727;DHT22;1879;45.876;12.300;2022-09-01T13:21:21;28.40;88.60
3727;DHT22;1879;45.876;12.300;2022-09-01T13:23:49;28.40;89.10
3727;DHT22;1879;45.876;12.300;2022-09-01T13:26:16;28.30;89.10
3727;DHT22;1879;45.876;12.300;2022-09-01T13:28:44;28.20;89.30
3727;DHT22;1879;45.876;12.300;2022-09-01T13:31:12;28.20;89.50
3727;DHT22;1879;45.876;12.300;2022-09-01T13:33:40;28.20;89.60
3727;DHT22;1879;45.876;12.300;2022-09-01T13:36:08;28.10;89.00
3727;DHT22;1879;45.876;12.300;2022-09-01T13:38:35;27.90;89.00
3727;DHT22;1879;45.876;12.300;2022-09-01T13:41:02;28.00;89.20
3727;DHT22;1879;45.876;12.300;2022-09-01T13:43:29;27.90;89.20
3727;DHT22;1879;45.876;12.300;2022-09-01T13:45:56;28.00;89.70
3727;DHT22;1879;45.876;12.300;2022-09-01T13:48:23;27.90;89.30
3727;DHT22;1879;45.876;12.300;2022-09-01T13:50:52;27.80;89.60
3727;DHT22;1879;45.876;12.300;2022-09-01T13:53:19;27.80;89.60
3727;DHT22;1879;45.876;12.300;2022-09-01T13:55:47;27.80;89.90
3727;DHT22;1879;45.876;12.300;2022-09-01T13:58:15;27.70;88.00
3727;DHT22;1879;45.876;12.300;2022-09-01T14:00:44;27.70;89.30
3727;DHT22;1879;45.876;12.300;2022-09-01T14:03:14;27.60;88.20
3727;DHT22;1879;45.876;12.300;2022-09-01T14:05:45;27.60;89.00
3727;DHT22;1879;45.876;12.300;2022-09-01T14:08:15;27.60;88.50
3727;DHT22;1879;45.876;12.300;2022-09-01T14:10:45;27.70;89.00
3727;DHT22;1879;45.876;12.300;2022-09-01T14:13:13;27.70;88.20
3727;DHT22;1879;45.876;12.300;2022-09-01T14:15:41;27.60;88.00
3727;DHT22;1879;45.876;12.300;2022-09-01T14:18:09;27.60;87.40
3727;DHT22;1879;45.876;12.300;2022-09-01T14:20:37;27.60;87.00
3727;DHT22;1879;45.876;12.300;2022-09-01T14:23:06;27.60;88.30
3727;DHT22;1879;45.876;12.300;2022-09-01T14:25:37;27.60;86.60
3727;DHT22;1879;45.876;12.300;2022-09-01T14:28:07;27.50;86.20
3727;DHT22;1879;45.876;12.300;2022-09-01T14:30:34;27.50;86.40
3727;DHT22;1879;45.876;12.300;2022-09-01T14:33:02;27.50;86.40
3727;DHT22;1879;45.876;12.300;2022-09-01T14:35:30;27.50;86.80
3727;DHT22;1879;45.876;12.300;2022-09-01T14:37:58;27.60;86.90
3727;DHT22;1879;45.876;12.300;2022-09-01T14:40:25;27.60;87.00
3727;DHT22;1879;45.876;12.300;2022-09-01T14:42:55;27.80;86.80
3727;DHT22;1879;45.876;12.300;2022-09-01T14:45:24;28.20;86.20
3727;DHT22;1879;45.876;12.300;2022-09-01T14:47:53;28.30;86.00
3727;DHT22;1879;45.876;12.300;2022-09-01T14:50:21;28.30;86.50
3727;DHT22;1879;45.876;12.300;2022-09-01T14:52:50;28.30;85.90
3727;DHT22;1879;45.876;12.300;2022-09-01T14:55:18;28.30;85.30
3727;DHT22;1879;45.876;12.300;2022-09-01T14:57:45;28.30;85.70
3727;DHT22;1879;45.876;12.300;2022-09-01T15:00:14;28.40;84.60
3727;DHT22;1879;45.876;12.300;2022-09-01T15:02:43;28.40;81.80
3727;DHT22;1879;45.876;12.300;2022-09-01T15:05:11;28.40;81.30
3727;DHT22;1879;45.876;12.300;2022-09-01T15:07:38;28.30;81.60
3727;DHT22;1879;45.876;12.300;2022-09-01T15:10:09;28.40;82.00
3727;DHT22;1879;45.876;12.300;2022-09-01T15:12:36;28.40;80.20
3727;DHT22;1879;45.876;12.300;2022-09-01T15:15:06;28.40;81.00
3727;DHT22;1879;45.876;12.300;2022-09-01T15:17:35;28.40;80.80
3727;DHT22;1879;45.876;12.300;2022-09-01T15:20:04;28.50;80.30
3727;DHT22;1879;45.876;12.300;2022-09-01T15:22:45;28.50;78.00
3727;DHT22;1879;45.876;12.300;2022-09-01T15:25:12;28.50;77.90
3727;DHT22;1879;45.876;12.300;2022-09-01T15:27:39;28.40;76.40
3727;DHT22;1879;45.876;12.300;2022-09-01T15:30:09;28.20;76.80
3727;DHT22;1879;45.876;12.300;2022-09-01T15:32:43;28.00;76.60
3727;DHT22;1879;45.876;12.300;2022-09-01T15:35:11;27.90;76.80
3727;DHT22;1879;45.876;12.300;2022-09-01T15:37:39;27.90;76.60
3727;DHT22;1879;45.876;12.300;2022-09-01T15:40:07;27.80;76.40
3727;DHT22;1879;45.876;12.300;2022-09-01T15:42:35;27.70;76.50
3727;DHT22;1879;45.876;12.300;2022-09-01T15:45:04;27.60;77.10
3727;DHT22;1879;45.876;12.300;2022-09-01T16:02:19;27.00;76.40
3727;DHT22;1879;45.876;12.300;2022-09-01T16:04:51;27.10;77.90
3727;DHT22;1879;45.876;12.300;2022-09-01T16:07:22;27.10;78.60
3727;DHT22;1879;45.876;12.300;2022-09-01T16:09:49;27.10;78.60
3727;DHT22;1879;45.876;12.300;2022-09-01T16:12:23;27.10;78.30
3727;DHT22;1879;45.876;12.300;2022-09-01T16:14:51;27.10;78.10
3727;DHT22;1879;45.876;12.300;2022-09-01T16:17:23;27.10;78.30
3727;DHT22;1879;45.876;12.300;2022-09-01T16:19:55;27.10;78.00
3727;DHT22;1879;45.876;12.300;2022-09-01T16:22:27;27.00;77.70
3727;DHT22;1879;45.876;12.300;2022-09-01T16:24:59;26.90;78.20
3727;DHT22;1879;45.876;12.300;2022-09-01T16:27:30;26.80;78.10
3727;DHT22;1879;45.876;12.300;2022-09-01T16:30:00;26.80;78.80
3727;DHT22;1879;45.876;12.300;2022-09-01T16:32:28;26.70;79.30